Latest Weather Observations for Port Macquarie Airport

IDN60801

Issued at 1:03 pm EST Tuesday 3 May 2016 (issued every 30 minutes, with the page automatically refreshed every 10 minutes)

About weather observations | Map of weather stations | Latest weather observations for NSW | Other Formats
Station Details ID: 060139 Name: PORT MACQUARIE AIRPORT AWS Lat: -31.43 Lon: 152.87 Height: 4.2 m
Data from the previous 72 hours. | See also: Recent months at Port Macquarie Airport
Date/Time
EST
Temp
°C
App
Temp
°C
Dew
Point
Rel
Hum
%
Delta-T
°C
Wind Press
QNH
hPa
Press
MSL
hPa
Rain
since 9 am
mm
Dir
 
Spd
km/h
Gust
km/h
Spd
kts
Gust
kts
03/01:00pm 25.7 25.4 14.5 50 6.7 NNE 9 13 5 7 1009.8 1009.8 0.0
03/12:30pm 25.7 25.9 14.2 49 6.8 NE 6 11 3 6 1010.3 1010.3 0.0
03/12:00pm 25.8 25.8 14.3 49 6.8 WNW 7 13 4 7 1010.7 1010.7 0.0
03/11:30am 24.8 24.3 13.7 50 6.5 SW 9 13 5 7 1011.1 1011.1 0.0
03/11:00am 24.4 24.0 13.0 49 6.6 S 7 11 4 6 1011.7 1011.7 0.0
03/10:30am 23.6 22.7 12.6 50 6.3 WSW 9 15 5 8 1012.3 1012.3 0.0
03/10:00am 23.5 22.8 14.2 56 5.5 WSW 11 15 6 8 1012.6 1012.6 0.0
03/09:30am 22.4 21.8 14.5 61 4.6 W 11 15 6 8 1012.9 1012.9 0.0
03/09:00am 21.4 21.9 15.5 69 3.5 WNW 7 11 4 6 1013.2 1013.2 0.0
03/08:30am 19.6 19.1 15.0 75 2.7 WNW 11 15 6 8 1013.4 1013.4 0.0
03/08:00am 17.9 18.3 15.3 85 1.5 WNW 7 11 4 6 1013.2 1013.2 0.0
03/07:30am 16.3 15.9 15.3 94 0.6 WNW 11 15 6 8 1013.1 1013.1 0.0
03/07:00am 14.6 15.9 14.0 96 0.3 CALM 0 0 0 0 1012.8 1012.8 0.0
03/06:46am 13.9 14.9 13.1 95 0.4 CALM 0 0 0 0 1012.6 1012.6 0.0
03/06:30am 13.1 13.8 12.2 94 0.5 CALM 0 0 0 0 1012.6 1012.6 0.0
03/06:03am 14.2 15.3 13.4 95 0.4 CALM 0 0 0 0 1012.7 1012.7 0.0
03/06:00am 14.2 15.2 13.2 94 0.6 CALM 0 4 0 2 1012.7 1012.7 0.0
03/05:30am 14.1 14.7 13.1 94 0.6 WSW 2 7 1 4 1012.7 1012.7 0.0
03/05:00am 14.8 16.0 13.8 94 0.6 CALM 0 0 0 0 1012.2 1012.2 0.0
03/04:30am 16.1 17.8 15.3 95 0.5 CALM 0 6 0 3 1011.7 1011.7 0.0
03/04:00am 16.1 16.6 15.1 94 0.6 W 6 9 3 5 1011.5 1011.5 0.0
03/03:30am 16.2 17.9 15.2 94 0.6 CALM 0 0 0 0 1011.5 1011.5 0.0
03/03:00am 17.3 19.4 16.3 94 0.6 CALM 0 0 0 0 1011.5 1011.5 0.0
03/02:30am 17.6 19.1 16.6 94 0.6 N 4 7 2 4 1011.6 1011.6 0.0
03/02:00am 17.4 18.8 16.3 93 0.7 W 4 6 2 3 1011.8 1011.8 0.0
03/01:30am 18.2 19.3 17.0 93 0.7 NNW 7 9 4 5 1012.2 1012.2 0.0
03/01:00am 18.7 20.9 17.5 93 0.7 W 2 6 1 3 1012.5 1012.5 0.0
03/12:30am 18.9 19.9 17.7 93 0.7 W 9 11 5 6 1012.9 1012.9 0.0
03/12:00am 19.2 20.4 18.2 94 0.6 WNW 9 13 5 7 1012.9 1012.9 0.0
 
Date/Time
EST
Temp
°C
App
Temp
°C
Dew
Point
Rel
Hum
%
Delta-T
°C
Wind Press
QNH
hPa
Press
MSL
hPa
Rain
since 9 am
mm
Dir
 
Spd
km/h
Gust
km/h
Spd
kts
Gust
kts
02/11:30pm 19.6 20.9 18.4 93 0.7 NW 9 11 5 6 1013.2 1013.2 0.0
02/11:00pm 19.8 22.1 18.5 92 0.8 NW 4 7 2 4 1013.6 1013.6 0.0
02/10:30pm 20.1 22.0 18.6 91 0.9 NW 6 9 3 5 1013.6 1013.6 0.0
02/10:00pm 20.5 22.3 18.8 90 1.1 N 7 11 4 6 1013.3 1013.3 0.0
02/09:30pm 20.7 22.8 19.0 90 1.1 NE 6 13 3 7 1013.5 1013.5 0.0
02/09:00pm 20.4 21.5 18.9 91 0.9 N 11 13 6 7 1014.7 1014.7 0.0
02/08:30pm 20.1 22.0 18.6 91 0.9 NNW 6 9 3 5 1014.6 1014.6 0.0
02/08:00pm 20.2 22.0 18.7 91 0.9 N 7 9 4 5 1015.1 1015.1 0.0
02/07:30pm 20.2 22.0 18.7 91 0.9 N 7 9 4 5 1015.1 1015.1 0.0
02/07:00pm 20.1 22.0 18.6 91 0.9 N 6 7 3 4 1014.9 1014.9 0.0
02/06:30pm 20.1 21.8 18.6 91 0.9 NW 7 7 4 4 1014.7 1014.7 0.0
02/06:00pm 20.6 22.3 18.5 88 1.3 N 7 9 4 5 1014.4 1014.4 0.0
02/05:30pm 21.4 23.2 18.8 85 1.6 N 7 11 4 6 1013.8 1013.8 0.0
02/05:00pm 21.9 23.3 18.7 82 2.0 NNE 9 11 5 6 1013.6 1013.6 0.0
02/04:30pm 22.2 23.6 18.6 80 2.3 NNE 9 13 5 7 1013.9 1013.9 0.0
02/04:00pm 22.4 23.0 18.6 79 2.4 NE 13 17 7 9 1013.5 1013.5 0.0
02/03:30pm 22.8 23.2 18.1 75 2.9 ENE 13 19 7 10 1013.5 1013.5 0.0
02/03:00pm 22.8 22.2 16.6 68 3.8 ENE 15 20 8 11 1013.4 1013.4 0.0
02/02:30pm 23.0 22.2 16.1 65 4.2 ENE 15 20 8 11 1013.4 1013.4 0.0
02/02:00pm 24.6 23.4 16.1 59 5.2 NE 17 20 9 11 1013.5 1013.5 0.0
02/01:30pm 24.6 23.1 15.2 55 5.6 ENE 17 20 9 11 1013.5 1013.5 0.0
02/01:00pm 24.9 23.8 15.2 54 5.8 ENE 15 19 8 10 1013.9 1013.9 0.0
02/12:30pm 24.8 24.8 14.3 52 6.2 NNE 7 15 4 8 1014.9 1014.9 0.0
02/12:00pm 24.7 24.5 14.8 54 5.9 NE 9 15 5 8 1015.3 1015.3 0.0
02/11:30am 24.1 24.2 14.5 55 5.7 N 7 13 4 7 1015.8 1015.8 0.0
02/11:00am 23.8 24.6 15.8 61 4.8 NW 6 11 3 6 1016.5 1016.5 0.0
02/10:30am 22.9 23.8 16.0 65 4.2 NW 6 7 3 4 1017.0 1017.0 0.0
02/10:00am 21.7 22.6 16.6 73 3.1 WNW 7 11 4 6 1017.6 1017.6 0.0
02/09:30am 20.0 20.7 16.0 78 2.4 WNW 7 9 4 5 1017.9 1017.9 0.0
02/09:00am 19.4 20.3 16.2 82 1.9 WNW 6 9 3 5 1017.9 1017.9 8.8
02/08:30am 17.3 17.1 14.6 84 1.6 WNW 9 13 5 7 1018.2 1018.2 8.8
02/08:00am 15.8 15.7 14.0 89 1.0 WNW 7 11 4 6 1018.2 1018.2 8.8
02/07:30am 14.9 14.9 14.1 95 0.5 W 7 11 4 6 1018.0 1018.0 8.8
02/07:00am 14.1 13.9 13.6 97 0.3 WNW 7 11 4 6 1017.8 1017.8 8.8
02/06:30am 13.1 12.8 12.6 97 0.3 WNW 6 9 3 5 1017.6 1017.6 8.8
02/06:00am 13.0 12.5 12.5 97 0.3 NW 7 7 4 4 1017.3 1017.3 8.8
02/05:30am 13.3 14.2 12.8 97 0.3 CALM 0 0 0 0 1017.0 1017.0 8.8
02/05:00am 13.6 13.8 13.1 97 0.3 WNW 4 7 2 4 1016.7 1016.7 8.8
02/04:30am 13.6 13.2 13.1 97 0.3 W 7 9 4 5 1016.3 1016.3 8.6
02/04:08am 13.9 15.0 13.4 97 0.3 CALM 0 0 0 0 1016.1 1016.1 8.6
02/04:00am 13.6 14.6 13.1 97 0.3 CALM 0 6 0 3 1016.1 1016.1 8.6
02/03:30am 13.7 14.7 13.1 96 0.3 CALM 0 6 0 3 1015.8 1015.8 8.6
02/03:12am 13.0 13.8 12.4 96 0.3 CALM 0 0 0 0 1015.7 1015.7 8.6
02/03:00am 13.8 14.8 13.2 96 0.3 CALM 0 6 0 3 1015.5 1015.5 8.6
02/02:30am 14.5 15.0 13.9 96 0.3 NNW 4 6 2 3 1015.6 1015.6 8.6
02/02:00am 14.2 14.2 13.6 96 0.3 SSW 6 9 3 5 1015.7 1015.7 8.6
02/01:30am 15.2 14.6 14.7 97 0.3 WNW 11 13 6 7 1015.7 1015.7 8.6
02/01:27am 15.2 14.6 14.7 97 0.3 NW 11 13 6 7 1015.7 1015.7 8.6
02/01:00am 14.1 15.1 13.1 94 0.5 CALM 0 0 0 0 1015.8 1015.8 8.6
02/12:50am 14.3 15.4 13.5 95 0.4 CALM 0 0 0 0 1015.9 1015.9 8.6
02/12:30am 15.6 16.0 14.8 95 0.5 NNE 6 7 3 4 1015.9 1015.9 8.6
02/12:00am 16.4 15.9 15.8 96 0.4 NW 13 19 7 10 1016.0 1016.0 8.6
 
Date/Time
EST
Temp
°C
App
Temp
°C
Dew
Point
Rel
Hum
%
Delta-T
°C
Wind Press
QNH
hPa
Press
MSL
hPa
Rain
since 9 am
mm
Dir
 
Spd
km/h
Gust
km/h
Spd
kts
Gust
kts
01/11:30pm 16.3 16.9 15.7 96 0.4 NW 7 13 4 7 1016.0 1016.0 8.6
01/11:00pm 15.9 15.4 14.9 94 0.6 NNW 11 15 6 8 1016.0 1016.0 8.6
01/10:30pm 16.8 17.0 15.8 94 0.6 NNW 9 11 5 6 1015.6 1015.6 8.6
01/10:00pm 17.4 17.4 16.3 93 0.7 NW 11 13 6 7 1015.6 1015.6 8.6
01/09:30pm 18.0 17.9 16.9 93 0.7 NNW 13 17 7 9 1015.8 1015.8 8.6
01/09:00pm 18.5 18.7 16.7 89 1.1 WNW 11 15 6 8 1015.7 1015.7 8.6
01/08:30pm 18.4 18.7 17.1 92 0.8 WSW 11 17 6 9 1015.3 1015.3 8.6
01/08:00pm 18.4 19.0 17.6 95 0.5 W 11 15 6 8 1015.4 1015.4 8.6
01/07:30pm 17.8 20.1 16.8 94 0.6 CALM 0 6 0 3 1015.4 1015.4 8.4
01/07:00pm 18.4 19.9 17.6 95 0.5 W 6 7 3 4 1014.9 1014.9 8.4
01/06:30pm 18.4 21.0 17.4 94 0.6 CALM 0 0 0 0 1014.6 1014.6 8.4
01/06:00pm 18.9 20.0 17.9 94 0.6 W 9 13 5 7 1014.6 1014.6 8.4
01/05:30pm 19.0 20.2 18.2 95 0.5 NW 9 13 5 7 1014.7 1014.7 8.4
01/05:00pm 19.3 19.8 18.3 94 0.6 WSW 13 20 7 11 1014.7 1014.7 8.4
01/04:30pm 19.4 19.5 18.4 94 0.6 N 15 22 8 12 1014.7 1014.7 8.4
01/04:00pm 19.3 19.4 18.3 94 0.6 NNW 15 20 8 11 1015.2 1015.2 8.4
01/03:30pm 19.5 20.1 18.7 95 0.5 N 13 17 7 9 1015.5 1015.5 7.8
01/03:00pm 19.7 20.4 18.9 95 0.5 N 13 17 7 9 1015.5 1015.5 6.8
01/02:30pm 19.7 21.5 18.7 94 0.6 W 7 9 4 5 1015.2 1015.2 5.8
01/02:00pm 19.8 20.9 18.8 94 0.6 NNW 11 15 6 8 1015.3 1015.3 5.4
01/01:43pm 20.2 21.9 19.4 95 0.5 NNE 9 11 5 6 1015.5 1015.5 4.8
01/01:30pm 20.1 22.7 19.3 95 0.5 NNW 4 9 2 5 1015.7 1015.7 4.2
01/01:27pm 20.1 22.3 19.3 95 0.5 NNW 6 11 3 6 1015.8 1015.8 3.8
01/01:26pm 20.1 22.2 19.3 95 0.5 NNW 7 13 4 7 1015.9 1015.9 3.8
01/01:08pm 20.0 21.1 18.8 93 0.8 WSW 11 15 6 8 1016.3 1016.3 2.0
01/01:00pm 20.3 21.5 19.0 92 0.8 WSW 11 15 6 8 1016.2 1016.2 0.8
01/12:30pm 20.4 21.3 19.2 93 0.8 SSW 13 20 7 11 1015.8 1015.8 0.6
01/12:00pm 20.8 20.7 19.5 92 0.8 SSW 19 24 10 13 1016.2 1016.2 0.4
01/11:30am 21.5 23.3 20.3 93 0.8 SSW 11 17 6 9 1016.4 1016.4 0.0
01/11:00am 20.5 23.8 19.2 92 0.8 CALM 0 13 0 7 1016.3 1016.3 0.0
01/10:30am 20.2 22.3 18.9 92 0.8 W 6 7 3 4 1016.3 1016.3 0.0
01/10:00am 19.9 22.0 18.9 94 0.6 WNW 6 9 3 5 1016.1 1016.1 0.0
01/09:30am 19.7 21.8 18.9 95 0.5 WNW 6 7 3 4 1016.4 1016.4 0.0
01/09:00am 19.6 21.5 18.9 96 0.4 N 7 9 4 5 1016.2 1016.2 0.0
01/08:30am 19.2 21.0 18.7 97 0.3 NNW 7 9 4 5 1016.2 1016.2 0.0
01/08:00am 18.8 20.7 18.5 98 0.2 NNW 6 7 3 4 1016.0 1016.0 0.0
01/07:30am 17.9 20.5 17.4 97 0.3 CALM 0 6 0 3 1016.0 1016.0 0.0
01/07:00am 17.6 18.9 17.1 97 0.3 NW 6 7 3 4 1015.8 1015.8 0.0
01/06:56am 17.6 18.9 17.1 97 0.3 NW 6 7 3 4 1015.7 1015.7 0.0
01/06:39am 16.7 18.7 16.1 96 0.4 CALM 0 0 0 0 1015.5 1015.5 0.0
01/06:30am 16.5 18.5 15.9 96 0.4 CALM 0 0 0 0 1015.6 1015.6 0.0
01/06:15am 16.3 18.2 15.7 96 0.4 CALM 0 0 0 0 1015.4 1015.4 0.0
01/06:00am 16.1 17.5 15.5 96 0.3 WNW 2 6 1 3 1015.4 1015.4 0.0
01/05:30am 16.6 18.2 16.0 96 0.4 NNW 2 7 1 4 1015.1 1015.1 0.0
01/05:11am 17.4 19.8 16.9 97 0.3 CALM 0 0 0 0 1014.9 1014.9 0.0
01/05:00am 17.6 19.7 17.1 97 0.3 N 2 7 1 4 1014.9 1014.9 0.0
01/04:53am 17.9 19.3 17.4 97 0.3 N 6 7 3 4 1014.9 1014.9 0.0
01/04:30am 17.8 19.2 17.3 97 0.3 NNW 6 7 3 4 1015.2 1015.2 0.0
01/04:00am 17.9 18.7 17.3 96 0.4 NW 9 9 5 5 1015.2 1015.2 0.0
01/03:32am 18.3 21.0 17.7 96 0.4 CALM 0 2 0 1 1015.1 1015.1 0.0
01/03:30am 18.1 20.6 17.3 95 0.5 CALM 0 2 0 1 1015.1 1015.1 0.0
01/03:00am 18.5 19.9 17.7 95 0.5 NNW 7 11 4 6 1015.2 1015.2 0.0
01/02:30am 19.2 20.9 18.4 95 0.5 N 7 9 4 5 1015.3 1015.3 0.0
01/02:00am 19.7 21.7 18.7 94 0.6 NNW 6 9 3 5 1015.7 1015.7 0.0
01/01:30am 19.9 21.7 18.7 93 0.7 NNW 7 9 4 5 1015.8 1015.8 0.0
01/01:00am 20.4 22.0 19.2 93 0.8 N 9 13 5 7 1015.9 1015.9 0.0
01/12:30am 20.6 22.3 19.4 93 0.8 N 9 13 5 7 1016.2 1016.2 0.0
01/12:00am 20.8 23.0 19.5 92 0.8 NNW 7 11 4 6 1016.7 1016.7 0.0
 
Date/Time
EST
Temp
°C
App
Temp
°C
Dew
Point
Rel
Hum
%
Delta-T
°C
Wind Press
QNH
hPa
Press
MSL
hPa
Rain
since 9 am
mm
Dir
 
Spd
km/h
Gust
km/h
Spd
kts
Gust
kts
30/11:30pm 21.1 23.3 19.7 92 0.9 NNW 7 9 4 5 1016.8 1016.8 0.0
30/11:00pm 21.3 22.8 19.8 91 1.0 NNE 11 15 6 8 1017.0 1017.0 0.0
30/10:30pm 21.7 23.8 20.2 91 1.0 NNE 9 13 5 7 1017.6 1017.6 0.0
30/10:00pm 21.6 23.7 20.1 91 1.0 N 9 11 5 6 1018.1 1018.1 0.0
30/09:30pm 21.5 24.1 20.0 91 1.0 NNW 6 11 3 6 1018.0 1018.0 0.0
30/09:00pm 21.8 24.2 20.1 90 1.1 N 7 11 4 6 1018.0 1018.0 0.0
30/08:30pm 21.7 24.2 19.8 89 1.2 N 6 11 3 6 1017.6 1017.6 0.0
30/08:00pm 21.8 23.3 19.7 88 1.3 N 11 15 6 8 1018.0 1018.0 0.0
30/07:30pm 22.0 23.9 19.7 87 1.5 NNE 9 11 5 6 1018.0 1018.0 0.0
30/07:00pm 22.0 24.2 19.5 86 1.6 N 7 9 4 5 1018.1 1018.1 0.0
30/06:30pm 22.3 24.5 19.7 85 1.7 N 7 11 4 6 1018.0 1018.0 0.0
30/06:00pm 22.5 24.3 19.5 83 1.9 NNE 9 13 5 7 1017.6 1017.6 0.0
30/05:30pm 22.7 23.7 19.5 82 2.0 NE 13 19 7 10 1017.1 1017.1 0.0
30/05:00pm 23.2 24.2 19.4 79 2.4 NE 13 19 7 10 1016.9 1016.9 0.0
30/04:30pm 23.8 24.2 19.1 75 3.0 NNE 15 24 8 13 1017.0 1017.0 0.0
30/04:00pm 25.1 25.6 19.2 70 3.8 NE 15 22 8 12 1016.7 1016.7 0.0
30/03:30pm 25.9 26.5 19.5 68 4.1 NE 15 22 8 12 1016.5 1016.5 0.0
30/03:00pm 26.1 26.2 19.2 65 4.4 NE 17 22 9 12 1016.7 1016.7 0.0
30/02:30pm 26.7 27.5 19.1 63 4.9 NNE 13 20 7 11 1016.9 1016.9 0.0
30/02:00pm 27.0 27.7 19.6 64 4.8 ENE 15 20 8 11 1017.0 1017.0 0.0
30/01:30pm 26.7 27.0 18.0 59 5.5 NE 13 20 7 11 1017.2 1017.2 0.0

Other Formats:

Comma delimited format used in spreadsheet applications
http://www.bom.gov.au/fwo/IDN60801/IDN60801.94786.axf

JavaScript Object Notation format (JSON) in row-major order
http://www.bom.gov.au/fwo/IDN60801/IDN60801.94786.json